createdAt,value
2017-11-29T00:02:13.142Z,94.51
2017-11-29T00:04:47.899Z,94.31
2017-11-29T00:07:22.813Z,94.30
2017-11-29T00:09:57.741Z,94.32
2017-11-29T00:12:32.597Z,94.33
2017-11-29T00:15:07.330Z,94.47
2017-11-29T00:17:42.258Z,94.72
2017-11-29T00:20:16.709Z,94.78
2017-11-29T00:22:51.693Z,94.75
2017-11-29T00:25:26.215Z,94.67
2017-11-29T00:28:01.453Z,94.77
2017-11-29T00:30:36.045Z,94.82
2017-11-29T00:33:11.031Z,94.90
2017-11-29T00:35:45.605Z,94.85
2017-11-29T00:38:20.478Z,94.81
2017-11-29T00:40:55.137Z,95.04
2017-11-29T00:43:30.370Z,94.98
2017-11-29T00:46:04.785Z,94.99
2017-11-29T00:48:39.849Z,95.00
2017-11-29T00:51:14.652Z,94.75
2017-11-29T00:53:49.226Z,94.78
2017-11-29T00:56:24.165Z,94.92
2017-11-29T00:58:58.721Z,94.71
2017-11-29T01:01:33.447Z,94.77
2017-11-29T01:04:08.104Z,94.55
2017-11-29T01:06:42.917Z,94.75
2017-11-29T01:09:17.617Z,94.88
2017-11-29T01:11:52.449Z,94.92
2017-11-29T01:14:27.373Z,95.09
2017-11-29T01:17:02.105Z,95.05
2017-11-29T01:19:36.934Z,94.96
2017-11-29T01:22:11.810Z,94.76
2017-11-29T01:24:46.769Z,94.52
2017-11-29T01:27:21.870Z,94.54
2017-11-29T01:29:56.666Z,94.48
2017-11-29T01:32:31.518Z,94.59
2017-11-29T01:35:06.653Z,94.68
2017-11-29T01:37:41.513Z,94.59
2017-11-29T01:40:16.109Z,94.79
2017-11-29T01:42:51.365Z,94.78
2017-11-29T01:45:26.209Z,94.79
2017-11-29T01:48:00.866Z,94.81
2017-11-29T01:50:36.081Z,94.81
2017-11-29T01:53:11.238Z,94.85
2017-11-29T01:55:46.258Z,94.84
2017-11-29T01:58:21.051Z,94.77
2017-11-29T02:00:55.698Z,94.72
2017-11-29T02:03:30.398Z,94.89
2017-11-29T02:06:16.347Z,95.03
2017-11-29T02:08:50.829Z,95.17
2017-11-29T02:11:25.735Z,95.04
2017-11-29T02:14:00.657Z,95.08
2017-11-29T02:16:35.643Z,94.93
2017-11-29T02:19:10.647Z,94.95
2017-11-29T02:21:45.249Z,94.87
2017-11-29T02:24:19.869Z,94.72
2017-11-29T02:26:54.550Z,94.78
2017-11-29T02:29:29.153Z,94.68
2017-11-29T02:32:03.650Z,94.53
2017-11-29T02:34:38.654Z,94.70
2017-11-29T02:37:13.366Z,94.54
2017-11-29T02:39:59.458Z,94.36
2017-11-29T02:42:41.937Z,94.51
2017-11-29T02:45:16.334Z,94.47
2017-11-29T02:47:51.213Z,94.47
2017-11-29T02:50:25.970Z,94.45
2017-11-29T02:53:00.825Z,94.39
2017-11-29T02:55:35.246Z,94.56
2017-11-29T02:58:10.205Z,94.58
2017-11-29T03:00:44.927Z,94.74
2017-11-29T03:03:20.222Z,94.81
2017-11-29T03:05:54.885Z,94.95
2017-11-29T03:08:30.168Z,95.12
2017-11-29T03:11:05.106Z,95.10
2017-11-29T03:13:39.617Z,95.18
2017-11-29T03:16:14.757Z,94.95
2017-11-29T03:18:49.610Z,95.01
2017-11-29T03:21:24.300Z,95.04
2017-11-29T03:23:59.092Z,95.30
2017-11-29T03:26:33.757Z,95.28
2017-11-29T03:29:08.549Z,95.37
2017-11-29T03:31:43.550Z,95.26
2017-11-29T03:34:18.252Z,95.43
2017-11-29T03:36:53.185Z,95.41
2017-11-29T03:39:28.166Z,95.41
2017-11-29T03:42:03.064Z,95.60
2017-11-29T03:44:38.161Z,95.56
2017-11-29T03:47:13.098Z,95.64
2017-11-29T03:49:47.873Z,95.54
2017-11-29T03:52:22.809Z,95.31
2017-11-29T03:54:57.629Z,95.37
2017-11-29T03:57:32.563Z,95.31
2017-11-29T04:00:07.386Z,95.19
2017-11-29T04:02:42.415Z,95.21
2017-11-29T04:05:17.546Z,95.25
2017-11-29T04:07:52.422Z,95.32
2017-11-29T04:10:26.864Z,95.37
2017-11-29T04:13:01.881Z,95.27
2017-11-29T04:15:37.004Z,95.23
2017-11-29T04:18:11.609Z,95.28
2017-11-29T04:20:46.337Z,95.44
2017-11-29T04:23:21.147Z,95.31
2017-11-29T04:25:56.222Z,95.04
2017-11-29T04:28:30.722Z,94.98
2017-11-29T04:31:05.722Z,94.99
2017-11-29T04:33:40.507Z,95.01
2017-11-29T04:36:15.558Z,94.92
2017-11-29T04:38:50.333Z,94.85
2017-11-29T04:41:25.236Z,94.75
2017-11-29T04:43:59.904Z,94.60
2017-11-29T04:46:34.870Z,94.45
2017-11-29T04:49:09.405Z,94.71
2017-11-29T04:51:44.325Z,94.59
2017-11-29T04:54:19.318Z,94.75
2017-11-29T04:56:54.113Z,94.79
2017-11-29T04:59:28.479Z,94.72
2017-11-29T05:02:03.313Z,94.76
2017-11-29T05:04:37.810Z,94.61
2017-11-29T05:07:12.662Z,94.74
2017-11-29T05:09:47.442Z,94.82
2017-11-29T05:12:21.542Z,94.76
2017-11-29T05:14:56.571Z,94.77
2017-11-29T05:17:31.085Z,94.81
2017-11-29T05:20:05.748Z,94.80
2017-11-29T05:22:40.681Z,94.77
2017-11-29T05:25:15.361Z,94.85
2017-11-29T05:27:50.425Z,94.91
2017-11-29T05:30:25.230Z,95.11
2017-11-29T05:32:59.885Z,95.27
2017-11-29T05:35:34.618Z,95.35
2017-11-29T05:38:09.222Z,95.39
2017-11-29T05:40:43.903Z,95.36
2017-11-29T05:43:18.594Z,95.56
2017-11-29T05:45:53.354Z,95.59
2017-11-29T05:48:27.928Z,95.58
2017-11-29T05:51:02.546Z,95.62
2017-11-29T05:53:37.281Z,95.61
2017-11-29T05:56:12.075Z,95.62
2017-11-29T05:58:47.285Z,95.89
2017-11-29T06:01:21.658Z,96.06
2017-11-29T06:03:56.264Z,95.95
2017-11-29T06:06:31.059Z,95.81
2017-11-29T06:09:05.842Z,95.84
2017-11-29T06:11:40.595Z,97.42
2017-11-29T06:14:15.426Z,100.00
2017-11-29T06:16:50.097Z,100.00
2017-11-29T06:19:25.207Z,98.13
2017-11-29T06:21:59.589Z,96.74
2017-11-29T06:24:34.595Z,95.20
2017-11-29T06:27:09.421Z,94.20
2017-11-29T06:29:44.024Z,93.76
2017-11-29T06:32:19.279Z,94.06
2017-11-29T06:34:54.406Z,94.34
2017-11-29T06:37:29.165Z,94.84
2017-11-29T06:40:03.942Z,94.53
2017-11-29T06:42:38.786Z,94.25
2017-11-29T06:45:13.405Z,94.92
2017-11-29T06:47:48.065Z,95.54
2017-11-29T06:50:23.087Z,95.85
2017-11-29T06:52:57.638Z,96.04
2017-11-29T06:55:32.665Z,95.61
2017-11-29T06:58:07.366Z,95.34
2017-11-29T07:00:42.150Z,95.17
2017-11-29T07:03:16.955Z,94.66
2017-11-29T07:05:51.726Z,93.95
2017-11-29T07:08:26.779Z,93.62
2017-11-29T07:11:01.606Z,94.00
2017-11-29T07:13:36.662Z,93.93
2017-11-29T07:16:11.220Z,93.76
2017-11-29T07:18:45.535Z,93.92
2017-11-29T07:21:20.790Z,93.92
2017-11-29T07:23:55.621Z,94.00
2017-11-29T07:26:30.145Z,94.29
2017-11-29T07:29:05.258Z,94.66
2017-11-29T07:31:40.715Z,94.49
2017-11-29T07:34:15.185Z,94.46
2017-11-29T07:36:50.052Z,94.53
2017-11-29T07:39:27.938Z,94.78
2017-11-29T07:42:02.715Z,94.86
2017-11-29T07:44:37.898Z,94.85
2017-11-29T07:47:12.721Z,95.13
2017-11-29T07:49:47.377Z,95.17
2017-11-29T07:52:22.206Z,94.94
2017-11-29T07:54:57.043Z,95.81
2017-11-29T07:57:31.662Z,95.22
2017-11-29T08:00:06.694Z,94.71
2017-11-29T08:02:41.604Z,94.59
2017-11-29T08:05:16.459Z,94.49
2017-11-29T08:07:51.489Z,94.65
2017-11-29T08:10:26.007Z,94.72
2017-11-29T08:13:00.834Z,95.36
2017-11-29T08:15:35.666Z,95.39
2017-11-29T08:18:10.435Z,95.24
2017-11-29T08:20:45.434Z,95.06
2017-11-29T08:23:20.154Z,94.84
2017-11-29T08:25:54.549Z,94.23
2017-11-29T08:28:29.231Z,93.84
2017-11-29T08:31:03.418Z,93.74
2017-11-29T08:33:38.417Z,93.61
2017-11-29T08:36:12.862Z,93.63
2017-11-29T08:38:47.578Z,93.53
2017-11-29T08:41:22.166Z,93.53
2017-11-29T08:43:57.050Z,93.45
2017-11-29T08:46:31.278Z,92.99
2017-11-29T08:49:06.303Z,92.78
2017-11-29T08:51:41.733Z,92.96
2017-11-29T08:54:16.698Z,93.21
2017-11-29T08:56:51.233Z,92.64
2017-11-29T08:59:26.234Z,92.09
2017-11-29T09:02:01.085Z,91.51
2017-11-29T09:04:35.894Z,90.70
2017-11-29T09:07:10.774Z,89.72
2017-11-29T09:09:45.425Z,89.54
2017-11-29T09:12:20.202Z,89.33
2017-11-29T09:14:55.133Z,88.83
2017-11-29T09:17:29.474Z,89.21
2017-11-29T09:20:04.510Z,89.83
2017-11-29T09:22:39.761Z,90.34
2017-11-29T09:25:14.452Z,90.69
2017-11-29T09:27:49.118Z,91.13
2017-11-29T09:30:23.837Z,91.52
2017-11-29T09:32:58.646Z,92.19
2017-11-29T09:35:33.307Z,92.68
2017-11-29T09:38:08.962Z,92.65
2017-11-29T09:40:43.682Z,92.83
2017-11-29T09:43:18.291Z,92.51
2017-11-29T09:45:52.915Z,92.58
2017-11-29T09:48:27.651Z,92.98
2017-11-29T09:51:02.498Z,93.07
2017-11-29T09:53:37.250Z,93.31
2017-11-29T09:56:11.882Z,93.21
2017-11-29T09:58:46.562Z,92.96
2017-11-29T10:01:21.434Z,92.96
2017-11-29T10:03:55.902Z,92.76
2017-11-29T10:06:30.561Z,93.03
2017-11-29T10:09:05.133Z,93.07
2017-11-29T10:11:39.894Z,92.83
2017-11-29T10:14:16.784Z,91.84
2017-11-29T10:16:51.390Z,91.83
2017-11-29T10:19:25.734Z,91.71
2017-11-29T10:22:00.046Z,91.57
2017-11-29T10:24:34.631Z,91.34
2017-11-29T10:27:09.207Z,90.93
2017-11-29T10:29:43.549Z,90.73
2017-11-29T10:32:18.295Z,90.65
2017-11-29T10:34:53.117Z,89.86
2017-11-29T10:37:27.416Z,89.61
2017-11-29T10:40:02.018Z,89.41
2017-11-29T10:42:36.832Z,89.28
2017-11-29T10:45:11.645Z,89.00
2017-11-29T10:47:46.226Z,89.08
2017-11-29T10:50:21.107Z,89.17
2017-11-29T10:52:55.858Z,89.03
2017-11-29T10:55:30.657Z,88.79
2017-11-29T10:58:05.550Z,88.37
2017-11-29T11:00:40.322Z,87.54
2017-11-29T11:03:14.630Z,87.47
2017-11-29T11:05:49.163Z,86.38
2017-11-29T11:08:23.902Z,86.12
2017-11-29T11:10:58.510Z,85.64
2017-11-29T11:13:32.938Z,85.58
2017-11-29T11:16:07.790Z,85.92
2017-11-29T11:18:42.316Z,85.30
2017-11-29T11:21:17.111Z,84.74
2017-11-29T11:23:51.440Z,84.95
2017-11-29T11:26:26.597Z,85.41
2017-11-29T11:29:00.615Z,85.35
2017-11-29T11:31:35.326Z,85.73
2017-11-29T11:34:09.779Z,85.87
2017-11-29T11:36:44.597Z,86.36
2017-11-29T11:39:19.318Z,86.86
2017-11-29T11:41:54.005Z,87.00
2017-11-29T11:44:27.937Z,87.43
2017-11-29T11:47:01.919Z,87.05
2017-11-29T11:49:36.386Z,87.13
2017-11-29T11:52:11.264Z,87.10
2017-11-29T11:54:45.898Z,86.70
2017-11-29T11:57:20.400Z,85.73
2017-11-29T11:59:55.322Z,86.05
2017-11-29T12:02:30.047Z,86.63
2017-11-29T12:05:05.059Z,86.29
2017-11-29T12:07:39.850Z,85.04
2017-11-29T12:10:14.533Z,84.90
2017-11-29T12:12:49.317Z,83.84
2017-11-29T12:15:24.163Z,83.97
2017-11-29T12:17:58.856Z,82.86
2017-11-29T12:20:32.942Z,82.41
2017-11-29T12:23:07.890Z,82.73
2017-11-29T12:25:42.702Z,81.12
2017-11-29T12:28:17.506Z,81.01
2017-11-29T12:30:52.239Z,80.61
2017-11-29T12:33:26.912Z,80.69
2017-11-29T12:36:01.615Z,80.44
2017-11-29T12:38:36.570Z,80.67
2017-11-29T12:41:11.091Z,80.63
2017-11-29T12:43:45.897Z,80.95
2017-11-29T12:46:20.479Z,81.12
2017-11-29T12:49:06.450Z,80.71
2017-11-29T12:51:41.305Z,80.37
2017-11-29T12:54:15.698Z,81.00
2017-11-29T12:56:50.681Z,81.62
2017-11-29T12:59:25.146Z,81.70
2017-11-29T13:01:59.770Z,81.53
2017-11-29T13:04:34.477Z,82.03
2017-11-29T13:07:09.270Z,82.32
2017-11-29T13:09:44.033Z,81.97
2017-11-29T13:12:19.046Z,82.10
2017-11-29T13:14:54.066Z,81.56
2017-11-29T13:17:28.559Z,81.86
2017-11-29T13:20:03.142Z,82.03
2017-11-29T13:22:38.162Z,82.22
2017-11-29T13:25:12.832Z,82.03
2017-11-29T13:27:47.464Z,82.01
2017-11-29T13:30:21.850Z,82.38
2017-11-29T13:32:55.943Z,81.55
2017-11-29T13:35:30.739Z,81.85
2017-11-29T13:38:04.833Z,82.11
2017-11-29T13:40:39.554Z,81.51
2017-11-29T13:43:14.746Z,81.87
2017-11-29T13:45:49.043Z,81.64
2017-11-29T13:48:23.774Z,82.05
2017-11-29T13:50:58.657Z,82.88
2017-11-29T13:53:33.435Z,83.26
2017-11-29T13:56:08.035Z,82.60
2017-11-29T13:58:42.768Z,82.52
2017-11-29T14:01:17.495Z,82.35
2017-11-29T14:03:52.339Z,82.33
2017-11-29T14:06:27.043Z,81.96
2017-11-29T14:09:02.007Z,82.24
2017-11-29T14:11:36.907Z,82.33
2017-11-29T14:14:11.695Z,82.17
2017-11-29T14:16:46.422Z,82.41
2017-11-29T14:19:21.446Z,82.11
2017-11-29T14:21:56.146Z,82.04
2017-11-29T14:24:30.742Z,82.58
2017-11-29T14:27:05.393Z,82.44
2017-11-29T14:29:39.954Z,82.46
2017-11-29T14:32:14.778Z,82.34
2017-11-29T14:34:49.813Z,82.71
2017-11-29T14:37:24.898Z,82.80
2017-11-29T14:39:59.631Z,83.38
2017-11-29T14:42:33.974Z,83.80
2017-11-29T14:45:08.817Z,83.82
2017-11-29T14:47:43.338Z,83.48
2017-11-29T14:50:18.319Z,83.78
2017-11-29T14:52:52.904Z,83.95
2017-11-29T14:55:27.744Z,84.10
2017-11-29T14:58:02.870Z,83.61
2017-11-29T15:00:37.805Z,84.11
2017-11-29T15:03:12.621Z,84.36
2017-11-29T15:05:47.656Z,84.82
2017-11-29T15:08:23.062Z,84.43
2017-11-29T15:10:58.334Z,84.32
2017-11-29T15:13:33.167Z,83.96
2017-11-29T15:16:09.482Z,83.55
2017-11-29T15:18:43.987Z,83.53
2017-11-29T15:21:18.610Z,83.89
2017-11-29T15:23:53.701Z,84.11
2017-11-29T15:26:28.514Z,83.63
2017-11-29T15:29:03.447Z,83.62
2017-11-29T15:31:37.942Z,83.76
2017-11-29T15:34:13.057Z,83.81
2017-11-29T15:36:47.982Z,83.88
2017-11-29T15:39:22.510Z,84.11
2017-11-29T15:41:57.366Z,84.41
2017-11-29T15:44:33.470Z,83.99
2017-11-29T15:47:08.814Z,84.00
2017-11-29T15:49:43.746Z,83.84
2017-11-29T15:52:18.343Z,83.91
2017-11-29T15:54:53.104Z,84.28
2017-11-29T15:57:28.336Z,84.19
2017-11-29T16:00:03.341Z,84.03
2017-11-29T16:02:37.866Z,84.35
2017-11-29T16:05:12.830Z,84.80
2017-11-29T16:07:47.615Z,84.88
2017-11-29T16:10:22.506Z,84.93
2017-11-29T16:12:57.191Z,84.56
2017-11-29T16:15:32.147Z,84.52
2017-11-29T16:18:06.819Z,84.83
2017-11-29T16:20:42.087Z,85.11
2017-11-29T16:23:16.378Z,85.17
2017-11-29T16:25:51.431Z,85.05
2017-11-29T16:28:25.943Z,84.78
2017-11-29T16:31:00.797Z,84.48
2017-11-29T16:33:35.745Z,84.77
2017-11-29T16:36:10.190Z,84.74
2017-11-29T16:38:45.147Z,84.94
2017-11-29T16:41:20.033Z,84.85
2017-11-29T16:43:54.881Z,84.95
2017-11-29T16:46:29.753Z,85.01
2017-11-29T16:49:04.202Z,85.20
2017-11-29T16:51:38.678Z,85.51
2017-11-29T16:54:13.712Z,84.99
2017-11-29T16:56:48.778Z,85.04
2017-11-29T16:59:23.526Z,85.14
2017-11-29T17:01:58.378Z,85.12
2017-11-29T17:04:32.686Z,85.16
2017-11-29T17:07:07.768Z,85.19
2017-11-29T17:09:42.438Z,85.34
2017-11-29T17:12:17.266Z,85.17
2017-11-29T17:14:51.577Z,84.91
2017-11-29T17:17:26.317Z,85.27
2017-11-29T17:20:01.447Z,85.15
2017-11-29T17:22:35.661Z,85.44
2017-11-29T17:25:09.818Z,85.60
2017-11-29T17:27:44.804Z,85.80
2017-11-29T17:30:19.294Z,85.52
2017-11-29T17:32:54.397Z,85.45
2017-11-29T17:35:29.634Z,85.60
2017-11-29T17:38:04.030Z,85.51
2017-11-29T17:40:39.294Z,85.43
2017-11-29T17:43:14.096Z,85.42
2017-11-29T17:45:49.104Z,85.30
2017-11-29T17:48:23.570Z,85.26
2017-11-29T17:50:58.718Z,85.21
2017-11-29T17:53:33.031Z,85.23
2017-11-29T17:56:07.962Z,85.21
2017-11-29T17:58:42.564Z,85.30
2017-11-29T18:01:17.198Z,85.39
2017-11-29T18:03:52.349Z,85.43
2017-11-29T18:06:26.874Z,85.52
2017-11-29T18:09:01.780Z,85.62
2017-11-29T18:11:36.550Z,85.62
2017-11-29T18:14:11.234Z,85.61
2017-11-29T18:16:46.114Z,85.58
2017-11-29T18:19:21.070Z,85.61
2017-11-29T18:21:55.727Z,85.65
2017-11-29T18:24:29.986Z,85.80
2017-11-29T18:27:04.613Z,86.06
2017-11-29T18:29:39.671Z,86.11
2017-11-29T18:32:14.250Z,86.10
2017-11-29T18:34:49.386Z,86.17
2017-11-29T18:37:24.314Z,86.16
2017-11-29T18:39:58.885Z,86.16
2017-11-29T18:42:34.221Z,86.54
2017-11-29T18:45:09.745Z,86.79
2017-11-29T18:47:43.970Z,86.92
2017-11-29T18:50:19.057Z,86.84
2017-11-29T18:52:54.054Z,86.90
2017-11-29T18:55:29.302Z,87.01
2017-11-29T18:58:03.779Z,87.15
2017-11-29T19:00:38.541Z,87.24
2017-11-29T19:03:13.654Z,87.29
2017-11-29T19:05:48.254Z,87.43
2017-11-29T19:08:22.817Z,87.52
2017-11-29T19:10:57.814Z,87.59
2017-11-29T19:13:33.254Z,87.65
2017-11-29T19:16:07.985Z,87.74
2017-11-29T19:18:42.430Z,87.71
2017-11-29T19:21:17.568Z,87.70
2017-11-29T19:23:52.817Z,87.75
2017-11-29T19:26:27.874Z,87.80
2017-11-29T19:29:02.534Z,87.89
2017-11-29T19:31:37.325Z,87.96
2017-11-29T19:34:11.917Z,88.06
2017-11-29T19:36:47.093Z,88.25
2017-11-29T19:39:21.799Z,88.87
2017-11-29T19:41:56.634Z,89.42
2017-11-29T19:44:31.154Z,90.11
2017-11-29T19:47:06.118Z,90.33
2017-11-29T19:49:41.137Z,90.20
2017-11-29T19:52:15.965Z,89.99
2017-11-29T19:54:50.946Z,89.89
2017-11-29T19:57:26.070Z,89.79
2017-11-29T20:00:00.838Z,89.67
2017-11-29T20:02:35.705Z,89.62
2017-11-29T20:05:10.435Z,89.69
2017-11-29T20:07:45.658Z,89.92
2017-11-29T20:10:20.706Z,89.97
2017-11-29T20:12:55.625Z,89.96
2017-11-29T20:15:29.745Z,89.99
2017-11-29T20:18:05.197Z,89.94
2017-11-29T20:20:40.250Z,89.96
2017-11-29T20:23:14.974Z,89.96
2017-11-29T20:25:49.939Z,89.99
2017-11-29T20:28:24.755Z,90.02
2017-11-29T20:30:59.913Z,89.87
2017-11-29T20:33:34.799Z,89.86
2017-11-29T20:36:09.849Z,89.80
2017-11-29T20:38:44.566Z,89.76
2017-11-29T20:41:19.370Z,89.69
2017-11-29T20:43:54.225Z,89.64
2017-11-29T20:46:29.073Z,89.55
2017-11-29T20:49:03.905Z,89.43
2017-11-29T20:51:39.033Z,89.49
2017-11-29T20:54:13.837Z,89.69
2017-11-29T20:56:48.994Z,89.87
2017-11-29T20:59:23.937Z,90.06
2017-11-29T21:01:59.173Z,90.16
2017-11-29T21:04:34.222Z,90.27
2017-11-29T21:07:09.402Z,90.44
2017-11-29T21:09:44.102Z,90.36
2017-11-29T21:12:18.647Z,90.38
2017-11-29T21:14:54.137Z,90.54
2017-11-29T21:17:28.629Z,90.50
2017-11-29T21:20:03.693Z,90.71
2017-11-29T21:22:38.317Z,90.90
2017-11-29T21:25:12.856Z,90.96
2017-11-29T21:27:47.898Z,91.04
2017-11-29T21:30:22.609Z,91.17
2017-11-29T21:32:57.595Z,91.20
2017-11-29T21:35:32.208Z,91.27
2017-11-29T21:38:07.240Z,91.62
2017-11-29T21:40:42.053Z,91.69
2017-11-29T21:43:17.393Z,91.75
2017-11-29T21:45:52.302Z,91.86
2017-11-29T21:48:26.688Z,91.91
2017-11-29T21:51:01.158Z,92.21
2017-11-29T21:53:36.192Z,92.72
2017-11-29T21:56:11.140Z,93.22
2017-11-29T21:58:45.746Z,93.85
2017-11-29T22:01:20.628Z,94.39
2017-11-29T22:03:55.342Z,94.89
2017-11-29T22:06:30.070Z,95.23
2017-11-29T22:09:04.353Z,95.54
2017-11-29T22:11:39.483Z,95.55
2017-11-29T22:14:14.233Z,95.66
2017-11-29T22:16:49.112Z,95.79
2017-11-29T22:19:24.081Z,95.70
2017-11-29T22:21:58.585Z,95.81
2017-11-29T22:24:33.524Z,95.93
2017-11-29T22:27:07.891Z,96.15
2017-11-29T22:29:42.697Z,96.29
2017-11-29T22:32:17.734Z,96.20
2017-11-29T22:34:52.510Z,96.13
2017-11-29T22:37:27.463Z,96.42
2017-11-29T22:40:02.577Z,96.61
2017-11-29T22:42:37.409Z,96.71
2017-11-29T22:45:12.237Z,96.77
2017-11-29T22:47:46.946Z,97.02
2017-11-29T22:50:21.869Z,96.98
2017-11-29T22:52:56.707Z,96.89
2017-11-29T22:55:31.526Z,96.56
2017-11-29T22:58:06.682Z,96.28
2017-11-29T23:00:41.811Z,96.29
2017-11-29T23:03:16.273Z,96.59
2017-11-29T23:05:51.304Z,97.01
2017-11-29T23:08:25.941Z,97.31
2017-11-29T23:11:00.919Z,97.37
2017-11-29T23:13:35.831Z,97.46
2017-11-29T23:16:10.809Z,97.39
2017-11-29T23:18:45.289Z,97.33
2017-11-29T23:21:20.242Z,97.30
2017-11-29T23:23:54.626Z,97.36
2017-11-29T23:26:29.535Z,97.18
2017-11-29T23:29:04.248Z,97.13
2017-11-29T23:31:39.266Z,96.97
2017-11-29T23:34:13.976Z,96.99
2017-11-29T23:36:49.030Z,96.75
2017-11-29T23:39:23.703Z,96.66
2017-11-29T23:41:58.734Z,96.68
2017-11-29T23:44:33.421Z,96.74
2017-11-29T23:47:08.185Z,96.80
2017-11-29T23:49:42.885Z,96.87
2017-11-29T23:52:17.518Z,97.02
2017-11-29T23:54:52.341Z,97.20
2017-11-29T23:57:26.841Z,97.28
